Aviation Digital Data Service (ADDS)

Output produced by METARs form (0451 UTC 23 February 2017)
found at http://aviationweather.gov/adds/metars/
 
KEKN 230255Z 2303/2324 00000KT P6SM OVC020 
     FM230500 00000KT 4SM BR OVC020 
     FM230800 00000KT 2SM BR BKN025 
     FM231300 VRB03KT 3SM BR BKN025 
     FM231400 VRB03KT P6SM BKN035